Time;durP1;ratioP1;P1;durP2;ratioP2;P2;SDS_P1;SDS_P2;PMS_P1;PMS_P2;Temp;Humidity;BMP_temperature;BMP_pressure;BME280_temperature;BME280_humidity;BME280_pressure;Samples;Min_cycle;Max_cycle;Signal;HPM_P1;HPM_P2
2022/04/03 00:02:21;;;;;;;29.15;19.40;;;2.10;99.90;;;;;;5074400;28;20619;-68
2022/04/03 00:04:49;;;;;;;26.42;17.42;;;2.10;99.90;;;;;;5073206;28;20209;-68
2022/04/03 00:07:16;;;;;;;24.88;17.52;;;2.10;99.90;;;;;;5073887;28;20230;-69
2022/04/03 00:09:43;;;;;;;29.20;17.55;;;2.20;99.90;;;;;;5073925;28;20306;-69
2022/04/03 00:12:10;;;;;;;28.35;17.92;;;2.20;99.90;;;;;;5073463;28;20748;-69
2022/04/03 00:14:37;;;;;;;27.95;18.73;;;2.10;99.90;;;;;;5073547;28;20234;-68
2022/04/03 00:17:04;;;;;;;27.13;18.23;;;2.10;99.90;;;;;;5073703;28;20293;-68
2022/04/03 00:19:31;;;;;;;28.17;18.42;;;2.10;99.90;;;;;;5073292;28;20222;-68
2022/04/03 00:22:01;;;;;;;27.20;18.85;;;2.10;99.90;;;;;;5073738;28;20248;-69
2022/04/03 00:24:28;;;;;;;24.77;17.23;;;2.20;99.90;;;;;;5073502;28;20203;-68
2022/04/03 00:26:54;;;;;;;28.27;17.20;;;2.20;99.90;;;;;;5073488;28;20309;-69
2022/04/03 00:29:23;;;;;;;25.80;18.42;;;2.10;99.90;;;;;;5073619;28;20223;-68
2022/04/03 00:31:50;;;;;;;29.50;19.00;;;2.00;99.90;;;;;;5073538;28;20202;-69
2022/04/03 00:34:17;;;;;;;32.08;17.27;;;1.90;99.90;;;;;;5073227;28;20285;-68
2022/04/03 00:36:43;;;;;;;29.02;18.27;;;2.00;99.90;;;;;;5073283;28;20216;-68
2022/04/03 00:39:11;;;;;;;24.88;16.67;;;2.00;99.90;;;;;;5073344;28;20218;-68
2022/04/03 00:41:40;;;;;;;26.83;17.55;;;2.00;99.90;;;;;;5074101;28;20209;-69
2022/04/03 00:44:07;;;;;;;29.38;19.20;;;2.00;99.90;;;;;;5073285;28;20293;-68
2022/04/03 00:46:36;;;;;;;24.55;17.30;;;2.00;99.90;;;;;;5073486;28;20199;-69
2022/04/03 00:49:03;;;;;;;26.27;17.33;;;2.00;99.90;;;;;;5073535;28;20222;-69
2022/04/03 00:51:30;;;;;;;28.00;18.80;;;2.10;99.90;;;;;;5073587;28;20206;-69
2022/04/03 00:53:57;;;;;;;28.05;18.75;;;2.00;99.90;;;;;;5073162;28;20202;-68
2022/04/03 00:56:25;;;;;;;28.35;18.95;;;1.90;99.90;;;;;;5073289;28;20202;-69
2022/04/03 00:58:52;;;;;;;28.75;18.60;;;2.00;99.90;;;;;;5073019;28;20708;-68
2022/04/03 01:01:20;;;;;;;23.48;16.52;;;2.00;99.90;;;;;;5072957;28;20222;-69
2022/04/03 01:03:48;;;;;;;31.02;18.63;;;2.10;99.90;;;;;;5073007;28;20206;-68
2022/04/03 01:06:16;;;;;;;29.05;18.70;;;2.10;99.90;;;;;;5073183;28;20679;-69
2022/04/03 01:08:43;;;;;;;24.65;17.58;;;2.10;99.90;;;;;;5073142;28;20203;-68
2022/04/03 01:11:10;;;;;;;30.55;17.55;;;2.00;99.90;;;;;;5073207;28;20194;-69
2022/04/03 01:13:46;;;;;;;27.02;17.70;;;2.10;99.90;;;;;;5073268;28;20579;-68
2022/04/03 01:16:13;;;;;;;24.20;17.60;;;2.20;99.90;;;;;;5074395;28;20618;-69
2022/04/03 01:18:40;;;;;;;25.85;18.10;;;2.30;99.90;;;;;;5076850;28;20210;-69
2022/04/03 01:21:07;;;;;;;23.60;16.55;;;2.30;99.90;;;;;;5076534;28;20226;-68
2022/04/03 01:23:33;;;;;;;24.75;18.20;;;2.30;99.90;;;;;;5076602;28;20602;-68
2022/04/03 01:26:02;;;;;;;24.48;17.08;;;2.40;99.90;;;;;;5077078;28;20294;-68
2022/04/03 01:28:28;;;;;;;28.63;18.00;;;2.40;99.90;;;;;;5076554;28;20302;-68
2022/04/03 01:30:55;;;;;;;27.13;18.10;;;2.60;99.90;;;;;;5076768;28;20207;-68
2022/04/03 01:33:22;;;;;;;26.17;18.27;;;2.60;99.90;;;;;;5076479;28;20207;-68
2022/04/03 01:35:49;;;;;;;28.65;18.60;;;2.70;99.90;;;;;;5076343;28;20210;-68
2022/04/03 01:38:16;;;;;;;28.77;18.85;;;2.80;99.90;;;;;;5076582;28;20234;-68
2022/04/03 01:40:43;;;;;;;28.05;18.38;;;2.70;99.90;;;;;;5076432;28;20280;-68
2022/04/03 01:43:12;;;;;;;29.77;18.92;;;2.70;99.90;;;;;;5076140;28;20289;-68
2022/04/03 01:45:40;;;;;;;26.38;17.88;;;2.50;99.90;;;;;;5076159;28;20285;-69
2022/04/03 01:48:09;;;;;;;29.63;18.65;;;2.50;99.90;;;;;;5076397;28;20202;-68
2022/04/03 01:50:36;;;;;;;26.95;18.33;;;2.50;99.90;;;;;;5075997;28;20223;-68
2022/04/03 01:53:03;;;;;;;28.48;18.58;;;2.40;99.90;;;;;;5076268;28;20206;-68
2022/04/03 01:55:30;;;;;;;30.17;18.42;;;2.30;99.90;;;;;;5076265;28;20229;-68
2022/04/03 01:57:57;;;;;;;25.00;16.52;;;2.30;99.90;;;;;;5076228;28;20564;-68
2022/04/03 02:00:26;;;;;;;25.35;17.83;;;2.40;99.90;;;;;;5075762;28;20237;-69
2022/04/03 02:02:53;;;;;;;24.17;16.58;;;2.50;99.90;;;;;;5075918;28;20707;-68
2022/04/03 02:05:21;;;;;;;23.98;16.15;;;2.60;99.90;;;;;;5076177;28;20203;-68
2022/04/03 02:07:48;;;;;;;22.20;15.93;;;2.60;99.90;;;;;;5076038;28;20206;-69
2022/04/03 02:10:15;;;;;;;23.02;17.20;;;2.70;99.90;;;;;;5076011;28;20223;-69
2022/04/03 02:12:42;;;;;;;25.77;17.40;;;2.70;99.90;;;;;;5075919;28;20298;-69
2022/04/03 02:15:11;;;;;;;21.02;16.38;;;2.80;99.90;;;;;;5075752;28;20202;-68
2022/04/03 02:17:40;;;;;;;24.25;16.00;;;2.90;99.90;;;;;;5076134;28;20210;-68
2022/04/03 02:20:09;;;;;;;22.50;15.60;;;2.90;99.90;;;;;;5075739;28;20218;-68
2022/04/03 02:22:36;;;;;;;22.05;15.60;;;3.00;99.90;;;;;;5075735;28;20206;-68
2022/04/03 02:25:04;;;;;;;22.92;16.90;;;3.00;99.90;;;;;;5075561;28;20621;-68
2022/04/03 02:27:31;;;;;;;26.30;16.23;;;2.90;99.90;;;;;;5074998;28;20217;-68
2022/04/03 02:29:58;;;;;;;23.20;16.25;;;2.80;99.90;;;;;;5075659;28;20231;-69
2022/04/03 02:32:25;;;;;;;24.05;16.60;;;2.60;99.90;;;;;;5075625;28;20203;-68
2022/04/03 02:34:54;;;;;;;22.48;15.63;;;2.50;99.90;;;;;;5075390;28;20199;-68
2022/04/03 02:37:20;;;;;;;22.88;15.18;;;2.60;99.90;;;;;;5075419;28;20202;-68
2022/04/03 02:39:47;;;;;;;24.63;16.10;;;2.60;99.90;;;;;;5075137;28;20255;-68
2022/04/03 02:42:14;;;;;;;26.40;15.98;;;2.60;99.90;;;;;;5075403;28;20206;-68
2022/04/03 02:44:41;;;;;;;24.25;17.33;;;2.60;99.90;;;;;;5075187;28;20209;-68
2022/04/03 02:47:08;;;;;;;23.70;15.60;;;2.40;99.90;;;;;;5075341;28;20639;-69
2022/04/03 02:49:35;;;;;;;26.08;15.88;;;2.50;99.90;;;;;;5075186;28;20309;-69
2022/04/03 02:52:05;;;;;;;27.02;16.65;;;2.60;99.90;;;;;;5075249;28;20249;-68
2022/04/03 02:54:32;;;;;;;24.52;16.13;;;2.70;99.90;;;;;;5074815;28;20214;-68
2022/04/03 02:56:59;;;;;;;23.67;16.55;;;2.70;99.90;;;;;;5075094;28;20625;-69
2022/04/03 02:59:26;;;;;;;23.08;15.30;;;2.60;99.90;;;;;;5075226;28;20227;-68
2022/04/03 03:01:53;;;;;;;24.90;16.08;;;2.60;99.90;;;;;;5075161;28;20229;-68
2022/04/03 03:04:19;;;;;;;23.48;15.55;;;2.60;99.90;;;;;;5074525;28;20661;-68
2022/04/03 03:06:46;;;;;;;24.90;16.42;;;2.60;99.90;;;;;;5074828;28;20233;-68
2022/04/03 03:09:14;;;;;;;26.08;16.73;;;2.40;99.90;;;;;;5074730;28;20227;-68
2022/04/03 03:11:42;;;;;;;25.05;17.30;;;2.30;99.90;;;;;;5075042;28;20198;-68
2022/04/03 03:14:08;;;;;;;26.65;16.38;;;2.30;99.90;;;;;;5074561;28;20241;-68
2022/04/03 03:16:35;;;;;;;24.25;15.95;;;2.30;99.90;;;;;;5074796;28;20220;-68
2022/04/03 03:19:02;;;;;;;23.90;16.20;;;2.40;99.90;;;;;;5074317;28;20268;-68
2022/04/03 03:21:29;;;;;;;27.33;16.30;;;2.50;99.90;;;;;;5074567;28;20245;-68
2022/04/03 03:23:56;;;;;;;23.48;16.25;;;2.40;99.90;;;;;;5074139;28;20661;-68
2022/04/03 03:26:24;;;;;;;21.75;15.02;;;2.50;99.90;;;;;;5074507;28;20566;-69
2022/04/03 03:28:51;;;;;;;22.67;16.15;;;2.60;99.90;;;;;;5074217;28;20234;-68
2022/04/03 03:31:17;;;;;;;23.80;16.48;;;2.50;99.90;;;;;;5074451;28;20272;-68
2022/04/03 03:33:44;;;;;;;22.55;15.55;;;2.40;99.90;;;;;;5074129;28;20205;-68
2022/04/03 03:36:11;;;;;;;24.25;15.27;;;2.30;99.90;;;;;;5074269;28;20202;-69
2022/04/03 03:38:38;;;;;;;25.45;16.42;;;2.20;99.90;;;;;;5073445;28;20209;-68
2022/04/03 03:41:04;;;;;;;24.95;16.02;;;2.10;99.90;;;;;;5074222;28;20227;-68
2022/04/03 03:43:33;;;;;;;23.80;16.02;;;2.10;99.90;;;;;;5074042;28;20203;-68
2022/04/03 03:46:00;;;;;;;22.20;14.90;;;1.90;99.90;;;;;;5074148;28;20203;-68
2022/04/03 03:48:27;;;;;;;25.75;17.50;;;1.90;99.90;;;;;;5074022;28;20207;-68
2022/04/03 03:50:55;;;;;;;29.23;17.45;;;2.00;99.90;;;;;;5073836;28;20199;-68
2022/04/03 03:53:22;;;;;;;25.23;16.25;;;2.00;99.90;;;;;;5073836;28;20203;-68
2022/04/03 03:55:50;;;;;;;25.10;15.70;;;2.00;99.90;;;;;;5074034;28;20667;-68
2022/04/03 03:58:16;;;;;;;27.33;17.75;;;2.00;99.90;;;;;;5074004;28;20206;-68
2022/04/03 04:00:45;;;;;;;24.90;16.15;;;1.80;99.90;;;;;;5074033;28;20685;-68
2022/04/03 04:03:12;;;;;;;26.77;16.08;;;1.70;99.90;;;;;;5073632;28;20657;-68
2022/04/03 04:05:39;;;;;;;28.80;17.50;;;1.70;99.90;;;;;;5073876;28;20202;-68
2022/04/03 04:08:07;;;;;;;23.45;14.32;;;1.70;99.90;;;;;;5073899;28;20203;-68
2022/04/03 04:10:34;;;;;;;30.08;17.25;;;1.70;99.90;;;;;;5073799;28;20576;-68
2022/04/03 04:13:01;;;;;;;27.65;16.90;;;1.70;99.90;;;;;;5073564;28;20207;-69
2022/04/03 04:15:28;;;;;;;23.70;16.38;;;1.80;99.90;;;;;;5073744;28;20202;-69
2022/04/03 04:17:56;;;;;;;23.23;15.40;;;1.80;99.90;;;;;;5073683;28;20617;-69
2022/04/03 04:20:24;;;;;;;22.38;15.18;;;2.00;99.90;;;;;;5073639;28;20589;-68
2022/04/03 04:22:52;;;;;;;22.60;14.30;;;2.10;99.90;;;;;;5073696;28;20297;-68
2022/04/03 04:25:20;;;;;;;25.17;16.05;;;2.20;99.90;;;;;;5073589;28;20680;-68
2022/04/03 04:27:47;;;;;;;25.23;15.77;;;2.20;99.90;;;;;;5073299;28;20297;-68
2022/04/03 04:30:15;;;;;;;24.75;16.35;;;2.10;99.90;;;;;;5073246;28;20700;-68
2022/04/03 04:32:42;;;;;;;23.25;15.85;;;1.90;99.90;;;;;;5073543;28;20294;-68
2022/04/03 04:35:13;;;;;;;24.83;17.50;;;1.80;99.90;;;;;;5073377;28;20210;-68
2022/04/03 04:37:40;;;;;;;22.80;15.57;;;1.70;99.90;;;;;;5073536;28;20202;-68
2022/04/03 04:40:09;;;;;;;23.13;14.85;;;1.70;99.90;;;;;;5073444;28;20230;-68
2022/04/03 04:42:36;;;;;;;23.95;16.58;;;1.70;99.90;;;;;;5073378;28;20313;-68
2022/04/03 04:45:03;;;;;;;23.92;15.50;;;1.80;99.90;;;;;;5073034;28;20213;-68
2022/04/03 04:47:35;;;;;;;25.67;16.33;;;1.70;99.90;;;;;;5073428;28;20209;-68
2022/04/03 04:50:03;;;;;;;24.92;15.40;;;1.70;99.90;;;;;;5074419;28;20280;-68
2022/04/03 04:52:31;;;;;;;22.92;15.60;;;1.70;99.90;;;;;;5077475;28;20205;-68
2022/04/03 04:54:58;;;;;;;23.10;15.48;;;1.80;99.90;;;;;;5077283;28;20199;-68
2022/04/03 04:57:24;;;;;;;22.15;14.52;;;1.80;99.90;;;;;;5077288;28;20265;-68
2022/04/03 04:59:51;;;;;;;22.67;15.50;;;1.90;99.90;;;;;;5077363;28;20248;-68
2022/04/03 05:02:18;;;;;;;20.02;14.25;;;1.90;99.90;;;;;;5077212;28;20219;-69
2022/04/03 05:04:45;;;;;;;26.10;15.23;;;1.80;99.90;;;;;;5077048;28;20238;-68
2022/04/03 05:07:13;;;;;;;24.65;15.77;;;1.90;99.90;;;;;;5077105;28;20289;-69
2022/04/03 05:09:42;;;;;;;24.05;14.73;;;1.80;99.90;;;;;;5077342;28;20223;-68
2022/04/03 05:12:10;;;;;;;22.67;15.05;;;1.90;99.90;;;;;;5076858;28;20205;-68
2022/04/03 05:14:37;;;;;;;22.02;14.32;;;1.80;99.90;;;;;;5076923;28;20203;-68
2022/04/03 05:17:05;;;;;;;20.40;14.40;;;1.80;99.90;;;;;;5077073;28;20203;-68
2022/04/03 05:19:32;;;;;;;21.80;14.30;;;1.70;99.90;;;;;;5076748;28;20726;-68
2022/04/03 05:21:59;;;;;;;24.60;15.30;;;1.70;99.90;;;;;;5076609;28;20688;-69
2022/04/03 05:24:26;;;;;;;22.90;14.60;;;1.60;99.90;;;;;;5076510;28;20202;-68
2022/04/03 05:26:54;;;;;;;21.65;14.80;;;1.70;99.90;;;;;;5076680;28;20672;-69
2022/04/03 05:29:21;;;;;;;20.45;13.30;;;1.80;99.90;;;;;;5077005;28;20222;-68
2022/04/03 05:31:48;;;;;;;20.85;14.30;;;1.80;99.90;;;;;;5076713;28;20237;-68
2022/04/03 05:34:15;;;;;;;20.60;14.60;;;1.80;99.90;;;;;;5076368;28;20213;-68
2022/04/03 05:36:42;;;;;;;19.23;13.70;;;1.90;99.90;;;;;;5076568;28;20203;-68
2022/04/03 05:39:09;;;;;;;21.88;14.10;;;1.90;99.90;;;;;;5076411;28;20313;-68
2022/04/03 05:41:36;;;;;;;20.30;13.57;;;1.80;99.90;;;;;;5076480;28;20226;-69
2022/04/03 05:44:05;;;;;;;20.85;13.55;;;1.70;99.90;;;;;;5076190;28;20203;-68
2022/04/03 05:46:31;;;;;;;18.90;12.80;;;1.70;99.90;;;;;;5076450;28;20199;-68
2022/04/03 05:48:59;;;;;;;19.00;12.52;;;1.70;99.90;;;;;;5076356;28;20222;-69
2022/04/03 05:51:26;;;;;;;19.85;13.88;;;1.80;99.90;;;;;;5076383;28;20272;-68
2022/04/03 05:53:53;;;;;;;19.77;13.63;;;1.90;99.90;;;;;;5076161;28;20203;-68
2022/04/03 05:56:26;;;;;;;18.27;12.63;;;1.90;99.90;;;;;;5076320;28;20199;-69
2022/04/03 05:58:53;;;;;;;19.33;13.18;;;2.00;99.90;;;;;;5076463;28;20314;-69
2022/04/03 06:01:22;;;;;;;20.60;12.77;;;2.00;99.90;;;;;;5075504;28;20218;-68
2022/04/03 06:03:49;;;;;;;18.75;12.93;;;2.20;99.90;;;;;;5075739;28;20722;-68
2022/04/03 06:06:15;;;;;;;18.13;12.65;;;2.10;99.90;;;;;;5076082;28;20211;-68
2022/04/03 06:08:43;;;;;;;19.75;13.02;;;2.10;99.90;;;;;;5076000;28;20209;-69
2022/04/03 06:11:10;;;;;;;19.63;13.25;;;2.20;99.90;;;;;;5076073;28;20202;-69
2022/04/03 06:13:36;;;;;;;18.52;12.35;;;2.10;99.90;;;;;;5075940;28;20207;-68
2022/04/03 06:16:03;;;;;;;19.95;13.57;;;2.10;99.90;;;;;;5075839;28;20687;-68
2022/04/03 06:18:32;;;;;;;19.50;14.20;;;2.10;99.90;;;;;;5075658;28;20664;-68
2022/04/03 06:20:58;;;;;;;21.58;12.43;;;2.00;99.90;;;;;;5075794;28;20202;-69
2022/04/03 06:23:25;;;;;;;16.60;12.70;;;1.90;99.90;;;;;;5075622;28;20579;-68
2022/04/03 06:25:54;;;;;;;19.45;13.18;;;1.90;99.90;;;;;;5075609;28;20665;-68
2022/04/03 06:28:21;;;;;;;16.73;12.00;;;1.90;99.90;;;;;;5075558;28;20233;-69
2022/04/03 06:30:48;;;;;;;17.33;12.23;;;2.10;99.90;;;;;;5075756;28;20317;-68
2022/04/03 06:33:17;;;;;;;16.55;12.02;;;2.20;99.90;;;;;;5075366;28;20556;-68
2022/04/03 06:35:45;;;;;;;20.60;12.82;;;2.20;99.90;;;;;;5075564;28;20293;-68
2022/04/03 06:38:13;;;;;;;14.07;10.63;;;2.30;99.90;;;;;;5075403;28;20206;-68
2022/04/03 06:40:49;;;;;;;19.13;12.70;;;2.40;99.90;;;;;;5075460;28;20653;-68
2022/04/03 06:43:18;;;;;;;14.75;10.95;;;2.50;99.90;;;;;;5075155;28;20227;-68
2022/04/03 06:45:45;;;;;;;15.45;11.70;;;2.40;99.90;;;;;;5075231;28;20203;-68
2022/04/03 06:48:12;;;;;;;18.85;11.02;;;2.40;99.90;;;;;;5075079;28;20302;-68
2022/04/03 06:50:39;;;;;;;19.85;12.23;;;2.30;99.90;;;;;;5074913;28;20227;-68
2022/04/03 06:53:07;;;;;;;15.95;11.15;;;2.40;99.90;;;;;;5075018;28;20195;-68
2022/04/03 06:55:34;;;;;;;13.48;10.02;;;2.50;99.90;;;;;;5075145;28;20203;-68
2022/04/03 06:58:01;;;;;;;17.02;11.18;;;2.50;99.90;;;;;;5074949;28;20238;-69
2022/04/03 07:00:29;;;;;;;12.05;9.70;;;2.50;99.90;;;;;;5074748;28;20729;-68
2022/04/03 07:02:56;;;;;;;13.82;9.30;;;2.50;99.90;;;;;;5075200;28;20652;-68
2022/04/03 07:05:23;;;;;;;12.45;9.27;;;2.70;99.90;;;;;;5074971;28;20620;-68
2022/04/03 07:07:52;;;;;;;14.00;10.30;;;2.90;99.90;;;;;;5074995;28;20206;-68
2022/04/03 07:10:21;;;;;;;14.82;10.95;;;3.20;99.90;;;;;;5074602;28;20272;-68
2022/04/03 07:12:48;;;;;;;13.35;9.60;;;3.10;99.90;;;;;;5074748;28;20297;-68
2022/04/03 07:15:15;;;;;;;14.25;10.60;;;3.10;99.90;;;;;;5074386;28;20209;-68
2022/04/03 07:17:43;;;;;;;14.55;9.35;;;3.30;99.90;;;;;;5074739;28;20205;-68
2022/04/03 07:20:13;;;;;;;13.55;10.38;;;3.10;99.90;;;;;;5074650;28;20576;-68
2022/04/03 07:22:40;;;;;;;12.50;9.57;;;3.00;99.90;;;;;;5074506;28;20219;-69
2022/04/03 07:25:08;;;;;;;13.10;10.20;;;2.90;99.90;;;;;;5074315;28;20211;-68
2022/04/03 07:27:37;;;;;;;11.60;9.15;;;3.10;99.90;;;;;;5074349;28;20293;-69
2022/04/03 07:30:05;;;;;;;13.65;10.20;;;3.10;99.90;;;;;;5074159;28;20229;-68
2022/04/03 07:32:32;;;;;;;11.93;9.73;;;3.20;99.90;;;;;;5074471;28;20207;-69
2022/04/03 07:34:59;;;;;;;12.93;9.82;;;3.30;99.90;;;;;;5074244;28;20280;-68
2022/04/03 07:37:26;;;;;;;11.32;8.98;;;3.30;99.90;;;;;;5074349;28;20205;-68
2022/04/03 07:39:53;;;;;;;12.88;9.40;;;3.30;99.90;;;;;;5074212;28;20623;-68
2022/04/03 07:42:20;;;;;;;11.85;9.50;;;3.40;99.90;;;;;;5073915;28;20223;-69
2022/04/03 07:44:48;;;;;;;13.27;9.18;;;3.30;99.90;;;;;;5074014;28;20213;-68
2022/04/03 07:47:15;;;;;;;10.70;8.77;;;3.30;99.90;;;;;;5074142;28;20627;-68
2022/04/03 07:49:42;;;;;;;10.50;9.13;;;3.30;99.90;;;;;;5073906;28;20230;-68
2022/04/03 07:52:09;;;;;;;11.43;8.95;;;3.50;99.90;;;;;;5073805;28;20669;-68
2022/04/03 07:54:38;;;;;;;12.18;9.40;;;3.70;99.90;;;;;;5073830;28;20206;-68
2022/04/03 07:57:06;;;;;;;12.02;9.18;;;3.60;99.90;;;;;;5074027;28;20630;-69
2022/04/03 07:59:33;;;;;;;12.65;9.25;;;3.60;99.90;;;;;;5073897;28;20230;-68
2022/04/03 08:02:01;;;;;;;12.27;9.68;;;3.50;99.90;;;;;;5073822;28;20215;-68
2022/04/03 08:04:27;;;;;;;13.20;9.30;;;3.30;99.90;;;;;;5073517;28;20209;-68
2022/04/03 08:06:54;;;;;;;13.05;10.10;;;3.20;99.90;;;;;;5073757;28;20214;-68
2022/04/03 08:09:21;;;;;;;13.50;10.15;;;3.10;99.90;;;;;;5073862;28;20562;-68
2022/04/03 08:11:48;;;;;;;12.13;9.80;;;3.10;99.90;;;;;;5074183;28;20205;-68
2022/04/03 08:14:15;;;;;;;13.10;9.25;;;3.10;99.90;;;;;;5073446;28;20202;-68
2022/04/03 08:16:42;;;;;;;13.23;9.57;;;3.10;99.90;;;;;;5073716;28;20229;-68
2022/04/03 08:19:10;;;;;;;11.15;9.00;;;3.20;99.90;;;;;;5073636;28;20223;-69
2022/04/03 08:21:37;;;;;;;13.73;8.98;;;3.30;99.90;;;;;;5073591;28;20295;-68
2022/04/03 08:24:04;;;;;;;10.43;7.80;;;3.40;99.90;;;;;;5073441;28;20208;-68
2022/04/03 08:26:31;;;;;;;11.43;9.00;;;3.50;99.90;;;;;;5073282;28;20214;-68
2022/04/03 08:28:58;;;;;;;11.85;9.05;;;3.40;99.90;;;;;;5073285;28;20240;-68
2022/04/03 08:31:25;;;;;;;14.27;9.52;;;3.40;99.90;;;;;;5073348;28;20206;-69
2022/04/03 08:33:52;;;;;;;12.75;9.30;;;3.60;99.90;;;;;;5073314;28;20199;-69
2022/04/03 08:36:20;;;;;;;9.32;7.82;;;3.90;99.90;;;;;;5073473;28;20293;-68
2022/04/03 08:38:50;;;;;;;11.82;9.40;;;4.20;99.90;;;;;;5073463;28;20223;-69
2022/04/03 08:41:16;;;;;;;9.98;8.20;;;4.50;99.90;;;;;;5073554;28;20198;-69
2022/04/03 08:43:46;;;;;;;10.07;8.30;;;4.70;99.90;;;;;;5073164;28;20607;-69
2022/04/03 08:46:13;;;;;;;9.98;8.80;;;4.80;99.90;;;;;;5073534;28;20209;-68
2022/04/03 08:48:44;;;;;;;9.30;7.75;;;4.90;99.90;;;;;;5073299;28;20294;-69
2022/04/03 08:51:11;;;;;;;12.63;8.27;;;4.90;99.90;;;;;;5073176;28;20213;-68
2022/04/03 08:53:40;;;;;;;10.80;7.68;;;4.90;99.90;;;;;;5072939;28;20664;-69
2022/04/03 08:56:07;;;;;;;9.00;6.75;;;4.80;99.90;;;;;;5073348;28;20203;-69
2022/04/03 08:58:34;;;;;;;8.45;6.50;;;4.60;99.90;;;;;;5073147;28;20293;-69
2022/04/03 09:01:02;;;;;;;9.25;6.88;;;4.90;99.90;;;;;;5073324;28;20545;-69
2022/04/03 09:03:29;;;;;;;9.98;7.45;;;5.20;99.90;;;;;;5072777;28;20284;-69
2022/04/03 09:06:12;;;;;;;8.13;6.95;;;5.40;99.90;;;;;;5073241;28;20732;-68
2022/04/03 09:08:40;;;;;;;8.25;6.55;;;5.50;99.90;;;;;;5073191;28;20276;-68
2022/04/03 09:11:07;;;;;;;9.27;7.45;;;5.60;99.90;;;;;;5073287;28;20210;-69
2022/04/03 09:13:35;;;;;;;8.13;6.70;;;5.50;99.90;;;;;;5072924;28;20629;-69
2022/04/03 09:16:02;;;;;;;8.10;6.80;;;5.50;99.90;;;;;;5072897;28;20656;-69
2022/04/03 09:18:46;;;;;;;8.55;7.18;;;5.40;99.90;;;;;;5073032;28;20202;-68
2022/04/03 09:21:17;;;;;;;9.27;7.38;;;5.10;99.90;;;;;;5073177;28;20199;-68
2022/04/03 09:24:03;;;;;;;9.75;7.03;;;5.00;99.90;;;;;;5072747;28;20218;-69
2022/04/03 09:26:31;;;;;;;7.22;6.47;;;4.90;99.90;;;;;;5073089;28;20222;-68
2022/04/03 09:29:14;;;;;;;7.32;6.63;;;4.70;99.90;;;;;;5072634;28;20242;-68
2022/04/03 09:31:43;;;;;;;8.88;7.70;;;4.70;99.90;;;;;;5070906;28;20310;-68
2022/04/03 09:34:16;;;;;;;8.30;7.32;;;4.70;99.90;;;;;;5072634;28;20291;-69
2022/04/03 09:36:43;;;;;;;12.20;7.72;;;4.60;99.90;;;;;;5073327;28;20206;-68
2022/04/03 09:39:14;;;;;;;7.65;6.57;;;4.70;99.90;;;;;;5076549;28;20223;-69
2022/04/03 09:41:56;;;;;;;8.85;7.10;;;4.80;99.90;;;;;;5076476;28;20764;-69
2022/04/03 09:44:32;;;;;;;9.55;7.10;;;4.60;99.90;;;;;;5076158;28;20675;-69
2022/04/03 09:47:30;;;;;;;9.75;7.05;;;4.40;99.90;;;;;;5076512;28;20219;-68
2022/04/03 09:49:58;;;;;;;10.95;7.10;;;4.40;99.90;;;;;;5041889;28;20218;-69
2022/04/03 09:52:40;;;;;;;10.55;7.10;;;4.40;99.90;;;;;;5076372;28;20205;-68
2022/04/03 09:55:16;;;;;;;8.60;6.80;;;4.60;99.90;;;;;;5076123;28;20202;-69
2022/04/03 09:57:44;;;;;;;9.88;7.07;;;4.70;99.90;;;;;;5076576;28;20208;-69
2022/04/03 10:00:11;;;;;;;8.80;7.15;;;4.70;99.90;;;;;;5076236;28;20223;-69
2022/04/03 10:02:38;;;;;;;9.55;7.40;;;4.90;99.90;;;;;;5075959;28;20224;-69
2022/04/03 10:05:07;;;;;;;9.60;7.20;;;4.70;99.90;;;;;;5075985;28;20293;-69
2022/04/03 10:07:38;;;;;;;11.05;7.03;;;4.50;99.90;;;;;;5076088;28;20202;-69
2022/04/03 10:10:06;;;;;;;9.05;7.20;;;4.10;99.90;;;;;;5076170;28;20265;-68
2022/04/03 10:12:35;;;;;;;9.25;6.95;;;3.80;99.90;;;;;;5075835;28;20199;-69
2022/04/03 10:15:06;;;;;;;10.40;7.55;;;3.60;99.90;;;;;;5075811;28;20294;-68
2022/04/03 10:17:32;;;;;;;11.63;7.43;;;3.50;99.90;;;;;;5075808;28;20209;-68
2022/04/03 10:19:59;;;;;;;8.73;7.20;;;3.80;99.90;;;;;;5075569;28;20227;-68
2022/04/03 10:22:32;;;;;;;10.25;7.50;;;3.90;99.90;;;;;;5075762;28;20205;-68
2022/04/03 10:25:03;;;;;;;9.40;6.88;;;4.00;99.90;;;;;;5075639;28;20207;-68
2022/04/03 10:27:33;;;;;;;8.27;6.47;;;4.00;99.90;;;;;;5075672;28;20238;-69
2022/04/03 10:30:01;;;;;;;9.27;7.38;;;4.10;99.90;;;;;;5075536;28;20309;-69
2022/04/03 10:32:30;;;;;;;9.88;6.85;;;4.20;99.90;;;;;;5075544;28;20669;-69
2022/04/03 10:34:59;;;;;;;8.15;6.80;;;4.40;99.90;;;;;;5075098;28;20203;-68
2022/04/03 10:37:30;;;;;;;6.90;5.80;;;4.70;99.90;;;;;;5075553;28;20599;-68
2022/04/03 10:40:02;;;;;;;6.60;5.55;;;4.90;99.90;;;;;;5075255;28;20705;-68
2022/04/03 10:42:30;;;;;;;8.57;6.38;;;5.20;99.90;;;;;;5075407;28;20297;-69
2022/04/03 10:45:28;;;;;;;9.73;5.28;;;5.40;99.90;;;;;;5075266;28;20575;-69
2022/04/03 10:48:26;;;;;;;7.97;5.90;;;5.40;99.90;;;;;;5075128;28;20633;-68
2022/04/03 10:51:04;;;;;;;8.02;6.50;;;5.50;99.90;;;;;;5075009;28;20704;-68
2022/04/03 10:53:33;;;;;;;7.28;5.85;;;5.60;99.90;;;;;;5074938;28;20740;-69
2022/04/03 10:56:07;;;;;;;6.97;5.70;;;5.70;99.90;;;;;;5075190;28;20207;-69
2022/04/03 10:58:42;;;;;;;6.93;6.20;;;5.80;99.90;;;;;;5075114;28;20619;-69
2022/04/03 11:01:22;;;;;;;10.45;6.20;;;6.00;99.90;;;;;;5075129;28;20208;-69
2022/04/03 11:04:01;;;;;;;10.77;6.85;;;6.00;99.90;;;;;;5074639;28;20218;-68
2022/04/03 11:06:33;;;;;;;6.95;5.70;;;6.00;99.90;;;;;;5075041;28;20206;-68
2022/04/03 11:09:12;;;;;;;8.60;5.80;;;6.10;99.90;;;;;;5074719;28;20226;-69
2022/04/03 11:11:44;;;;;;;6.90;6.20;;;6.10;99.90;;;;;;5074694;28;20649;-69
2022/04/03 11:14:33;;;;;;;9.90;5.68;;;6.20;99.90;;;;;;5074504;28;20199;-69
2022/04/03 11:17:01;;;;;;;5.95;5.35;;;6.20;99.90;;;;;;5074583;28;20668;-69
2022/04/03 11:19:36;;;;;;;6.13;5.35;;;6.30;99.90;;;;;;5074365;28;20239;-69
2022/04/03 11:22:05;;;;;;;6.50;5.90;;;6.20;99.90;;;;;;5074396;28;20204;-69
2022/04/03 11:24:36;;;;;;;6.70;5.43;;;6.50;99.90;;;;;;5074163;28;20227;-68
2022/04/03 11:27:04;;;;;;;6.68;5.60;;;6.50;99.90;;;;;;5074424;28;20218;-69
2022/04/03 11:29:31;;;;;;;7.35;5.28;;;6.70;99.90;;;;;;5074556;28;20227;-69
2022/04/03 11:31:58;;;;;;;5.63;4.80;;;6.80;99.40;;;;;;5074486;28;20311;-69
2022/04/03 11:34:30;;;;;;;6.78;4.55;;;7.50;99.90;;;;;;5074250;28;20225;-69
2022/04/03 11:36:58;;;;;;;5.70;5.10;;;8.00;97.30;;;;;;5074440;28;20207;-69
2022/04/03 11:39:32;;;;;;;5.80;5.20;;;8.50;96.20;;;;;;5074135;28;20715;-69
2022/04/03 11:42:06;;;;;;;5.90;5.18;;;8.60;95.70;;;;;;5074289;28;20209;-69
2022/04/03 11:44:35;;;;;;;7.07;5.30;;;8.50;94.30;;;;;;5073858;28;20221;-68
2022/04/03 11:47:03;;;;;;;6.65;5.20;;;8.40;92.90;;;;;;5074477;28;20210;-69
2022/04/03 11:49:32;;;;;;;7.03;5.10;;;7.80;94.80;;;;;;5074042;28;20222;-69
2022/04/03 11:52:06;;;;;;;5.50;5.00;;;7.40;91.20;;;;;;5073789;28;20213;-69
2022/04/03 11:54:33;;;;;;;5.93;5.28;;;7.50;93.10;;;;;;5073959;28;20195;-69
2022/04/03 11:57:01;;;;;;;5.82;5.20;;;7.50;91.60;;;;;;5074024;28;20203;-69
2022/04/03 11:59:29;;;;;;;5.85;5.28;;;7.30;94.00;;;;;;5073146;28;20227;-69
2022/04/03 12:01:57;;;;;;;6.90;5.90;;;7.20;96.10;;;;;;5074020;28;20214;-68
2022/04/03 12:04:24;;;;;;;5.60;5.00;;;7.20;93.90;;;;;;5073438;28;20245;-68
2022/04/03 12:06:58;;;;;;;5.53;4.90;;;7.20;95.90;;;;;;5074145;28;20206;-69
2022/04/03 12:09:26;;;;;;;5.95;5.30;;;7.10;95.00;;;;;;5073666;28;20250;-68
2022/04/03 12:11:54;;;;;;;5.70;5.10;;;6.80;95.30;;;;;;5074055;28;20211;-68
2022/04/03 12:14:26;;;;;;;7.45;6.22;;;6.30;94.60;;;;;;5073472;28;20583;-68
2022/04/03 12:17:00;;;;;;;5.25;4.75;;;6.00;95.80;;;;;;5073580;28;20230;-69
2022/04/03 12:19:27;;;;;;;6.38;5.40;;;5.70;94.30;;;;;;5073762;28;20316;-68
2022/04/03 12:22:00;;;;;;;5.60;4.80;;;5.20;96.50;;;;;;5073697;28;20205;-68
2022/04/03 12:24:28;;;;;;;8.43;6.60;;;5.00;98.50;;;;;;5073458;28;20231;-68
2022/04/03 12:26:59;;;;;;;8.70;6.93;;;5.10;99.90;;;;;;5073252;28;20753;-69
2022/04/03 12:29:27;;;;;;;6.20;5.07;;;5.20;99.90;;;;;;5073492;28;20218;-69
2022/04/03 12:32:00;;;;;;;6.45;5.20;;;5.20;97.80;;;;;;5073586;28;20256;-68
2022/04/03 12:34:28;;;;;;;5.65;5.05;;;5.40;99.90;;;;;;5073338;28;20195;-69
2022/04/03 12:36:57;;;;;;;7.53;6.20;;;5.50;99.90;;;;;;5073543;28;20626;-68
2022/04/03 12:39:36;;;;;;;8.30;6.25;;;5.50;99.90;;;;;;5073362;28;20223;-68
2022/04/03 12:42:15;;;;;;;6.20;5.60;;;5.40;99.90;;;;;;5073523;28;20187;-68
2022/04/03 12:44:50;;;;;;;7.93;5.93;;;5.20;95.80;;;;;;5073257;28;20232;-68
2022/04/03 12:47:20;;;;;;;7.60;5.32;;;5.00;96.00;;;;;;5073520;28;20213;-68
2022/04/03 12:49:51;;;;;;;5.97;5.15;;;4.90;99.70;;;;;;5073368;28;20577;-68
2022/04/03 12:52:39;;;;;;;6.95;5.68;;;4.60;97.70;;;;;;5073185;28;20644;-69